sensor_id;sensor_type;location;lat;lon;timestamp;P1;durP1;ratioP1;P2;durP2;ratioP2
74510;SDS011;62991;50.040;18.400;2024-01-15T00:01:05;13.30;;;3.03;;
74510;SDS011;62991;50.040;18.400;2024-01-15T00:04:06;5.32;;;1.20;;
74510;SDS011;62991;50.040;18.400;2024-01-15T00:07:07;3.30;;;1.35;;
74510;SDS011;62991;50.040;18.400;2024-01-15T00:10:09;11.02;;;2.67;;
74510;SDS011;62991;50.040;18.400;2024-01-15T00:13:09;4.03;;;2.00;;
74510;SDS011;62991;50.040;18.400;2024-01-15T00:16:10;7.30;;;3.25;;
74510;SDS011;62991;50.040;18.400;2024-01-15T00:19:12;8.10;;;3.60;;
74510;SDS011;62991;50.040;18.400;2024-01-15T00:22:13;5.97;;;3.40;;
74510;SDS011;62991;50.040;18.400;2024-01-15T00:25:13;5.85;;;3.15;;
74510;SDS011;62991;50.040;18.400;2024-01-15T00:28:14;2.90;;;0.95;;
74510;SDS011;62991;50.040;18.400;2024-01-15T00:31:16;5.00;;;2.05;;
74510;SDS011;62991;50.040;18.400;2024-01-15T00:34:17;6.72;;;2.75;;
74510;SDS011;62991;50.040;18.400;2024-01-15T00:37:18;6.43;;;2.40;;
74510;SDS011;62991;50.040;18.400;2024-01-15T00:40:19;8.60;;;2.85;;
74510;SDS011;62991;50.040;18.400;2024-01-15T00:43:19;4.63;;;1.25;;
74510;SDS011;62991;50.040;18.400;2024-01-15T00:46:21;2.65;;;1.30;;
74510;SDS011;62991;50.040;18.400;2024-01-15T00:49:22;2.63;;;1.48;;
74510;SDS011;62991;50.040;18.400;2024-01-15T00:52:22;4.28;;;2.10;;
74510;SDS011;62991;50.040;18.400;2024-01-15T00:55:23;3.17;;;1.40;;
74510;SDS011;62991;50.040;18.400;2024-01-15T00:58:24;2.10;;;1.08;;
74510;SDS011;62991;50.040;18.400;2024-01-15T01:01:25;1.50;;;0.65;;
74510;SDS011;62991;50.040;18.400;2024-01-15T01:04:25;4.05;;;1.77;;
74510;SDS011;62991;50.040;18.400;2024-01-15T01:07:26;4.90;;;1.98;;
74510;SDS011;62991;50.040;18.400;2024-01-15T01:10:27;7.05;;;2.03;;
74510;SDS011;62991;50.040;18.400;2024-01-15T01:13:28;5.55;;;2.00;;
74510;SDS011;62991;50.040;18.400;2024-01-15T01:16:28;4.88;;;1.98;;
74510;SDS011;62991;50.040;18.400;2024-01-15T01:19:31;2.33;;;0.82;;
74510;SDS011;62991;50.040;18.400;2024-01-15T01:22:31;2.53;;;1.58;;
74510;SDS011;62991;50.040;18.400;2024-01-15T01:25:32;6.32;;;2.03;;
74510;SDS011;62991;50.040;18.400;2024-01-15T01:28:33;4.20;;;2.38;;
74510;SDS011;62991;50.040;18.400;2024-01-15T01:31:33;3.15;;;1.33;;
74510;SDS011;62991;50.040;18.400;2024-01-15T01:34:39;3.70;;;1.85;;
74510;SDS011;62991;50.040;18.400;2024-01-15T01:37:42;5.05;;;1.52;;
74510;SDS011;62991;50.040;18.400;2024-01-15T01:40:42;5.18;;;2.30;;
74510;SDS011;62991;50.040;18.400;2024-01-15T01:43:43;1.95;;;0.82;;
74510;SDS011;62991;50.040;18.400;2024-01-15T01:46:44;5.07;;;2.05;;
74510;SDS011;62991;50.040;18.400;2024-01-15T01:49:45;4.75;;;1.95;;
74510;SDS011;62991;50.040;18.400;2024-01-15T01:52:46;6.80;;;1.35;;
74510;SDS011;62991;50.040;18.400;2024-01-15T01:55:48;2.95;;;1.30;;
74510;SDS011;62991;50.040;18.400;2024-01-15T01:58:49;3.78;;;1.77;;
74510;SDS011;62991;50.040;18.400;2024-01-15T02:01:50;3.00;;;1.60;;
74510;SDS011;62991;50.040;18.400;2024-01-15T02:04:52;3.00;;;1.40;;
74510;SDS011;62991;50.040;18.400;2024-01-15T02:07:53;4.22;;;0.98;;
74510;SDS011;62991;50.040;18.400;2024-01-15T02:10:54;1.77;;;1.23;;
74510;SDS011;62991;50.040;18.400;2024-01-15T02:13:54;2.17;;;1.15;;
74510;SDS011;62991;50.040;18.400;2024-01-15T02:16:55;1.73;;;1.25;;
74510;SDS011;62991;50.040;18.400;2024-01-15T02:19:56;4.38;;;1.40;;
74510;SDS011;62991;50.040;18.400;2024-01-15T02:23:07;7.38;;;1.17;;
74510;SDS011;62991;50.040;18.400;2024-01-15T02:26:12;6.57;;;2.35;;
74510;SDS011;62991;50.040;18.400;2024-01-15T02:29:13;3.08;;;1.67;;
74510;SDS011;62991;50.040;18.400;2024-01-15T02:32:15;4.13;;;1.50;;
74510;SDS011;62991;50.040;18.400;2024-01-15T02:35:16;3.58;;;1.45;;
74510;SDS011;62991;50.040;18.400;2024-01-15T02:38:16;3.08;;;1.10;;
74510;SDS011;62991;50.040;18.400;2024-01-15T02:41:17;1.80;;;0.52;;
74510;SDS011;62991;50.040;18.400;2024-01-15T02:44:18;1.48;;;0.93;;
74510;SDS011;62991;50.040;18.400;2024-01-15T02:47:18;3.17;;;1.60;;
74510;SDS011;62991;50.040;18.400;2024-01-15T02:50:19;1.30;;;1.05;;
74510;SDS011;62991;50.040;18.400;2024-01-15T02:53:20;4.47;;;2.38;;
74510;SDS011;62991;50.040;18.400;2024-01-15T02:56:20;4.53;;;1.90;;
74510;SDS011;62991;50.040;18.400;2024-01-15T02:59:21;3.40;;;1.02;;
74510;SDS011;62991;50.040;18.400;2024-01-15T03:02:22;2.15;;;1.27;;
74510;SDS011;62991;50.040;18.400;2024-01-15T03:05:22;2.05;;;1.27;;
74510;SDS011;62991;50.040;18.400;2024-01-15T03:08:23;2.50;;;1.38;;
74510;SDS011;62991;50.040;18.400;2024-01-15T03:11:24;1.20;;;0.90;;
74510;SDS011;62991;50.040;18.400;2024-01-15T03:14:25;2.53;;;1.25;;
74510;SDS011;62991;50.040;18.400;2024-01-15T03:17:26;1.83;;;0.82;;
74510;SDS011;62991;50.040;18.400;2024-01-15T03:20:27;4.30;;;1.77;;
74510;SDS011;62991;50.040;18.400;2024-01-15T03:23:27;1.27;;;0.95;;
74510;SDS011;62991;50.040;18.400;2024-01-15T03:26:28;2.03;;;1.27;;
74510;SDS011;62991;50.040;18.400;2024-01-15T03:29:29;1.80;;;0.90;;
74510;SDS011;62991;50.040;18.400;2024-01-15T03:32:30;3.15;;;1.15;;
74510;SDS011;62991;50.040;18.400;2024-01-15T03:35:30;2.25;;;1.25;;
74510;SDS011;62991;50.040;18.400;2024-01-15T03:38:31;5.43;;;1.95;;
74510;SDS011;62991;50.040;18.400;2024-01-15T03:41:32;2.60;;;1.00;;
74510;SDS011;62991;50.040;18.400;2024-01-15T03:44:32;2.22;;;0.75;;
74510;SDS011;62991;50.040;18.400;2024-01-15T03:47:33;14.25;;;2.63;;
74510;SDS011;62991;50.040;18.400;2024-01-15T03:50:34;4.63;;;2.15;;
74510;SDS011;62991;50.040;18.400;2024-01-15T03:53:34;9.05;;;3.17;;
74510;SDS011;62991;50.040;18.400;2024-01-15T03:56:35;2.53;;;1.70;;
74510;SDS011;62991;50.040;18.400;2024-01-15T03:59:35;2.13;;;1.02;;
74510;SDS011;62991;50.040;18.400;2024-01-15T04:02:36;4.03;;;1.67;;
74510;SDS011;62991;50.040;18.400;2024-01-15T04:05:37;5.88;;;2.33;;
74510;SDS011;62991;50.040;18.400;2024-01-15T04:08:38;1.83;;;0.55;;
74510;SDS011;62991;50.040;18.400;2024-01-15T04:11:39;3.38;;;1.83;;
74510;SDS011;62991;50.040;18.400;2024-01-15T04:14:40;1.50;;;1.15;;
74510;SDS011;62991;50.040;18.400;2024-01-15T04:17:40;3.28;;;1.30;;
74510;SDS011;62991;50.040;18.400;2024-01-15T04:20:41;5.10;;;2.25;;
74510;SDS011;62991;50.040;18.400;2024-01-15T04:23:42;3.85;;;1.38;;
74510;SDS011;62991;50.040;18.400;2024-01-15T04:26:43;2.28;;;1.25;;
74510;SDS011;62991;50.040;18.400;2024-01-15T04:29:44;1.20;;;0.73;;
74510;SDS011;62991;50.040;18.400;2024-01-15T04:32:44;2.28;;;1.90;;
74510;SDS011;62991;50.040;18.400;2024-01-15T04:35:45;6.13;;;1.58;;
74510;SDS011;62991;50.040;18.400;2024-01-15T04:38:46;3.65;;;1.92;;
74510;SDS011;62991;50.040;18.400;2024-01-15T04:41:46;3.28;;;1.50;;
74510;SDS011;62991;50.040;18.400;2024-01-15T04:44:47;0.70;;;0.70;;
74510;SDS011;62991;50.040;18.400;2024-01-15T04:47:48;4.13;;;2.28;;
74510;SDS011;62991;50.040;18.400;2024-01-15T04:50:49;5.72;;;2.08;;
74510;SDS011;62991;50.040;18.400;2024-01-15T04:53:50;4.95;;;1.80;;
74510;SDS011;62991;50.040;18.400;2024-01-15T04:56:51;0.88;;;0.35;;
74510;SDS011;62991;50.040;18.400;2024-01-15T04:59:51;2.30;;;1.27;;
74510;SDS011;62991;50.040;18.400;2024-01-15T05:02:52;3.00;;;1.33;;
74510;SDS011;62991;50.040;18.400;2024-01-15T05:05:53;3.50;;;1.10;;
74510;SDS011;62991;50.040;18.400;2024-01-15T05:08:53;5.07;;;1.60;;
74510;SDS011;62991;50.040;18.400;2024-01-15T05:11:54;1.00;;;0.65;;
74510;SDS011;62991;50.040;18.400;2024-01-15T05:14:55;7.13;;;2.28;;
74510;SDS011;62991;50.040;18.400;2024-01-15T05:17:55;4.03;;;1.90;;
74510;SDS011;62991;50.040;18.400;2024-01-15T05:20:56;2.20;;;1.13;;
74510;SDS011;62991;50.040;18.400;2024-01-15T05:23:57;1.70;;;1.38;;
74510;SDS011;62991;50.040;18.400;2024-01-15T05:26:57;4.28;;;1.17;;
74510;SDS011;62991;50.040;18.400;2024-01-15T05:29:58;2.83;;;1.10;;
74510;SDS011;62991;50.040;18.400;2024-01-15T05:32:59;12.20;;;2.67;;
74510;SDS011;62991;50.040;18.400;2024-01-15T05:36:01;2.47;;;1.60;;
74510;SDS011;62991;50.040;18.400;2024-01-15T05:39:02;6.10;;;3.05;;
74510;SDS011;62991;50.040;18.400;2024-01-15T05:42:03;2.08;;;1.25;;
74510;SDS011;62991;50.040;18.400;2024-01-15T05:45:04;0.93;;;0.77;;
74510;SDS011;62991;50.040;18.400;2024-01-15T05:48:06;2.97;;;1.08;;
74510;SDS011;62991;50.040;18.400;2024-01-15T05:51:06;1.60;;;1.25;;
74510;SDS011;62991;50.040;18.400;2024-01-15T05:54:07;6.43;;;2.08;;
74510;SDS011;62991;50.040;18.400;2024-01-15T05:57:08;2.65;;;1.80;;
74510;SDS011;62991;50.040;18.400;2024-01-15T06:00:08;7.75;;;2.35;;
74510;SDS011;62991;50.040;18.400;2024-01-15T06:03:10;3.20;;;1.67;;
74510;SDS011;62991;50.040;18.400;2024-01-15T06:06:10;8.70;;;1.48;;
74510;SDS011;62991;50.040;18.400;2024-01-15T06:09:11;1.90;;;1.73;;
74510;SDS011;62991;50.040;18.400;2024-01-15T06:12:12;1.50;;;1.05;;
74510;SDS011;62991;50.040;18.400;2024-01-15T06:15:12;4.50;;;2.78;;
74510;SDS011;62991;50.040;18.400;2024-01-15T06:18:13;2.13;;;1.63;;
74510;SDS011;62991;50.040;18.400;2024-01-15T06:21:14;2.60;;;1.50;;
74510;SDS011;62991;50.040;18.400;2024-01-15T06:24:15;1.77;;;1.10;;
74510;SDS011;62991;50.040;18.400;2024-01-15T06:27:17;4.45;;;1.95;;
74510;SDS011;62991;50.040;18.400;2024-01-15T06:30:18;3.05;;;1.55;;
74510;SDS011;62991;50.040;18.400;2024-01-15T06:33:19;3.42;;;2.10;;
74510;SDS011;62991;50.040;18.400;2024-01-15T06:36:19;2.58;;;1.27;;
74510;SDS011;62991;50.040;18.400;2024-01-15T06:39:20;2.40;;;1.38;;
74510;SDS011;62991;50.040;18.400;2024-01-15T06:42:21;3.58;;;1.42;;
74510;SDS011;62991;50.040;18.400;2024-01-15T06:45:22;5.05;;;1.88;;
74510;SDS011;62991;50.040;18.400;2024-01-15T06:48:22;3.05;;;1.40;;
74510;SDS011;62991;50.040;18.400;2024-01-15T06:51:23;1.55;;;1.45;;
74510;SDS011;62991;50.040;18.400;2024-01-15T06:54:24;6.43;;;2.35;;
74510;SDS011;62991;50.040;18.400;2024-01-15T06:57:26;11.15;;;5.68;;
74510;SDS011;62991;50.040;18.400;2024-01-15T07:00:27;12.00;;;3.88;;
74510;SDS011;62991;50.040;18.400;2024-01-15T07:03:27;4.38;;;2.03;;
74510;SDS011;62991;50.040;18.400;2024-01-15T07:06:28;15.43;;;4.72;;
74510;SDS011;62991;50.040;18.400;2024-01-15T07:09:30;9.80;;;3.05;;
74510;SDS011;62991;50.040;18.400;2024-01-15T07:12:31;2.67;;;1.67;;
74510;SDS011;62991;50.040;18.400;2024-01-15T07:15:32;4.13;;;2.47;;
74510;SDS011;62991;50.040;18.400;2024-01-15T07:18:32;7.88;;;2.58;;
74510;SDS011;62991;50.040;18.400;2024-01-15T07:21:33;13.07;;;4.32;;
74510;SDS011;62991;50.040;18.400;2024-01-15T07:24:33;21.23;;;9.10;;
74510;SDS011;62991;50.040;18.400;2024-01-15T07:27:35;22.10;;;8.80;;
74510;SDS011;62991;50.040;18.400;2024-01-15T07:30:35;18.08;;;5.85;;
74510;SDS011;62991;50.040;18.400;2024-01-15T07:33:38;9.38;;;5.38;;
74510;SDS011;62991;50.040;18.400;2024-01-15T07:36:39;16.10;;;4.85;;
74510;SDS011;62991;50.040;18.400;2024-01-15T07:39:39;5.90;;;3.47;;
74510;SDS011;62991;50.040;18.400;2024-01-15T07:42:40;9.45;;;3.40;;
74510;SDS011;62991;50.040;18.400;2024-01-15T07:45:42;7.07;;;1.73;;
74510;SDS011;62991;50.040;18.400;2024-01-15T07:48:43;17.08;;;4.72;;
74510;SDS011;62991;50.040;18.400;2024-01-15T07:51:44;17.60;;;8.02;;
74510;SDS011;62991;50.040;18.400;2024-01-15T07:54:45;8.65;;;4.28;;
74510;SDS011;62991;50.040;18.400;2024-01-15T07:57:45;29.15;;;6.25;;
74510;SDS011;62991;50.040;18.400;2024-01-15T08:00:46;12.45;;;4.15;;
74510;SDS011;62991;50.040;18.400;2024-01-15T08:03:47;33.53;;;9.40;;
74510;SDS011;62991;50.040;18.400;2024-01-15T08:06:48;18.02;;;7.20;;
74510;SDS011;62991;50.040;18.400;2024-01-15T08:09:48;9.80;;;3.53;;
74510;SDS011;62991;50.040;18.400;2024-01-15T08:12:49;10.77;;;4.53;;
74510;SDS011;62991;50.040;18.400;2024-01-15T08:15:50;4.25;;;3.38;;
74510;SDS011;62991;50.040;18.400;2024-01-15T08:18:50;11.40;;;3.15;;
74510;SDS011;62991;50.040;18.400;2024-01-15T08:21:51;7.65;;;3.08;;
74510;SDS011;62991;50.040;18.400;2024-01-15T08:24:52;7.13;;;1.73;;
74510;SDS011;62991;50.040;18.400;2024-01-15T08:27:53;5.15;;;2.85;;
74510;SDS011;62991;50.040;18.400;2024-01-15T08:30:54;7.50;;;2.22;;
74510;SDS011;62991;50.040;18.400;2024-01-15T08:33:54;6.20;;;1.90;;
74510;SDS011;62991;50.040;18.400;2024-01-15T08:36:55;6.25;;;2.00;;
74510;SDS011;62991;50.040;18.400;2024-01-15T08:39:56;5.57;;;3.22;;
74510;SDS011;62991;50.040;18.400;2024-01-15T08:42:56;8.45;;;2.63;;
74510;SDS011;62991;50.040;18.400;2024-01-15T08:45:57;15.25;;;5.13;;
74510;SDS011;62991;50.040;18.400;2024-01-15T08:48:59;16.05;;;4.57;;
74510;SDS011;62991;50.040;18.400;2024-01-15T08:51:59;10.45;;;4.50;;
74510;SDS011;62991;50.040;18.400;2024-01-15T08:55:00;9.95;;;3.10;;
74510;SDS011;62991;50.040;18.400;2024-01-15T08:58:01;12.70;;;4.88;;
74510;SDS011;62991;50.040;18.400;2024-01-15T09:01:01;9.48;;;4.25;;
74510;SDS011;62991;50.040;18.400;2024-01-15T09:04:02;9.38;;;2.78;;
74510;SDS011;62991;50.040;18.400;2024-01-15T09:07:03;8.23;;;1.27;;
74510;SDS011;62991;50.040;18.400;2024-01-15T09:10:04;11.13;;;4.25;;
74510;SDS011;62991;50.040;18.400;2024-01-15T09:13:05;9.38;;;3.58;;
74510;SDS011;62991;50.040;18.400;2024-01-15T09:16:06;6.45;;;3.25;;
74510;SDS011;62991;50.040;18.400;2024-01-15T09:19:07;5.65;;;1.70;;
74510;SDS011;62991;50.040;18.400;2024-01-15T09:22:08;5.30;;;1.67;;
74510;SDS011;62991;50.040;18.400;2024-01-15T09:25:08;4.22;;;2.03;;
74510;SDS011;62991;50.040;18.400;2024-01-15T09:28:09;10.60;;;2.78;;
74510;SDS011;62991;50.040;18.400;2024-01-15T09:31:10;6.55;;;3.17;;
74510;SDS011;62991;50.040;18.400;2024-01-15T09:34:11;9.65;;;3.05;;
74510;SDS011;62991;50.040;18.400;2024-01-15T09:37:13;8.55;;;3.13;;
74510;SDS011;62991;50.040;18.400;2024-01-15T09:40:14;11.60;;;3.72;;
74510;SDS011;62991;50.040;18.400;2024-01-15T09:43:16;11.50;;;3.00;;
74510;SDS011;62991;50.040;18.400;2024-01-15T09:46:17;5.20;;;2.53;;
74510;SDS011;62991;50.040;18.400;2024-01-15T09:49:18;9.10;;;4.13;;
74510;SDS011;62991;50.040;18.400;2024-01-15T09:52:19;8.32;;;3.33;;
74510;SDS011;62991;50.040;18.400;2024-01-15T09:55:20;6.90;;;4.15;;
74510;SDS011;62991;50.040;18.400;2024-01-15T09:58:22;6.97;;;3.05;;
74510;SDS011;62991;50.040;18.400;2024-01-15T10:01:22;15.25;;;5.22;;
74510;SDS011;62991;50.040;18.400;2024-01-15T10:04:24;8.30;;;3.22;;
74510;SDS011;62991;50.040;18.400;2024-01-15T10:07:25;9.85;;;4.70;;
74510;SDS011;62991;50.040;18.400;2024-01-15T10:10:26;15.75;;;3.50;;
74510;SDS011;62991;50.040;18.400;2024-01-15T10:13:26;31.45;;;10.25;;
74510;SDS011;62991;50.040;18.400;2024-01-15T10:16:28;2.90;;;1.65;;
74510;SDS011;62991;50.040;18.400;2024-01-15T10:19:30;15.82;;;5.13;;
74510;SDS011;62991;50.040;18.400;2024-01-15T10:22:31;33.28;;;9.35;;
74510;SDS011;62991;50.040;18.400;2024-01-15T10:25:32;14.02;;;4.18;;
74510;SDS011;62991;50.040;18.400;2024-01-15T10:28:32;18.05;;;6.40;;
74510;SDS011;62991;50.040;18.400;2024-01-15T10:31:33;14.68;;;4.85;;
74510;SDS011;62991;50.040;18.400;2024-01-15T10:34:37;15.40;;;6.57;;
74510;SDS011;62991;50.040;18.400;2024-01-15T10:37:41;18.48;;;3.83;;
74510;SDS011;62991;50.040;18.400;2024-01-15T10:40:41;15.70;;;8.02;;
74510;SDS011;62991;50.040;18.400;2024-01-15T10:43:42;20.42;;;8.77;;
74510;SDS011;62991;50.040;18.400;2024-01-15T10:46:45;21.85;;;6.68;;
74510;SDS011;62991;50.040;18.400;2024-01-15T10:49:47;14.45;;;6.65;;
74510;SDS011;62991;50.040;18.400;2024-01-15T10:52:47;19.23;;;6.60;;
74510;SDS011;62991;50.040;18.400;2024-01-15T10:55:48;9.93;;;4.95;;
74510;SDS011;62991;50.040;18.400;2024-01-15T10:58:51;10.60;;;4.32;;
74510;SDS011;62991;50.040;18.400;2024-01-15T11:01:54;12.65;;;4.53;;
74510;SDS011;62991;50.040;18.400;2024-01-15T11:04:56;10.75;;;4.55;;
74510;SDS011;62991;50.040;18.400;2024-01-15T11:07:57;13.77;;;4.43;;
74510;SDS011;62991;50.040;18.400;2024-01-15T11:11:00;10.93;;;4.32;;
74510;SDS011;62991;50.040;18.400;2024-01-15T11:14:00;4.78;;;3.00;;
74510;SDS011;62991;50.040;18.400;2024-01-15T11:17:01;10.50;;;2.58;;
74510;SDS011;62991;50.040;18.400;2024-01-15T11:20:05;10.80;;;4.15;;
74510;SDS011;62991;50.040;18.400;2024-01-15T11:23:06;13.10;;;5.15;;
74510;SDS011;62991;50.040;18.400;2024-01-15T11:29:41;7.28;;;2.90;;
74510;SDS011;62991;50.040;18.400;2024-01-15T11:32:42;14.38;;;4.38;;
74510;SDS011;62991;50.040;18.400;2024-01-15T11:35:48;9.73;;;4.65;;
74510;SDS011;62991;50.040;18.400;2024-01-15T11:38:50;4.15;;;2.17;;
74510;SDS011;62991;50.040;18.400;2024-01-15T11:41:51;8.15;;;3.25;;
74510;SDS011;62991;50.040;18.400;2024-01-15T11:44:52;17.42;;;6.15;;
74510;SDS011;62991;50.040;18.400;2024-01-15T11:51:14;10.38;;;3.97;;
74510;SDS011;62991;50.040;18.400;2024-01-15T11:54:18;5.22;;;2.65;;
74510;SDS011;62991;50.040;18.400;2024-01-15T11:57:25;4.95;;;2.45;;
74510;SDS011;62991;50.040;18.400;2024-01-15T12:03:48;13.10;;;5.47;;
74510;SDS011;62991;50.040;18.400;2024-01-15T12:06:48;3.90;;;1.85;;
74510;SDS011;62991;50.040;18.400;2024-01-15T12:09:49;6.10;;;2.97;;
74510;SDS011;62991;50.040;18.400;2024-01-15T12:13:00;12.35;;;4.38;;
74510;SDS011;62991;50.040;18.400;2024-01-15T12:16:04;7.75;;;2.80;;
74510;SDS011;62991;50.040;18.400;2024-01-15T12:19:05;5.25;;;2.40;;
74510;SDS011;62991;50.040;18.400;2024-01-15T12:22:06;21.63;;;7.60;;
74510;SDS011;62991;50.040;18.400;2024-01-15T12:25:07;12.82;;;6.10;;
74510;SDS011;62991;50.040;18.400;2024-01-15T12:28:08;16.45;;;5.40;;
74510;SDS011;62991;50.040;18.400;2024-01-15T12:31:09;16.83;;;6.65;;
74510;SDS011;62991;50.040;18.400;2024-01-15T12:34:10;14.75;;;5.68;;
74510;SDS011;62991;50.040;18.400;2024-01-15T12:37:11;9.88;;;4.78;;
74510;SDS011;62991;50.040;18.400;2024-01-15T12:40:12;22.58;;;5.57;;
74510;SDS011;62991;50.040;18.400;2024-01-15T12:43:14;13.45;;;4.60;;
74510;SDS011;62991;50.040;18.400;2024-01-15T12:46:15;13.05;;;6.05;;
74510;SDS011;62991;50.040;18.400;2024-01-15T12:49:16;8.90;;;4.70;;
74510;SDS011;62991;50.040;18.400;2024-01-15T12:52:18;7.28;;;4.13;;
74510;SDS011;62991;50.040;18.400;2024-01-15T12:55:20;7.65;;;2.70;;
74510;SDS011;62991;50.040;18.400;2024-01-15T12:58:20;10.02;;;4.15;;
74510;SDS011;62991;50.040;18.400;2024-01-15T13:01:21;9.20;;;2.67;;
74510;SDS011;62991;50.040;18.400;2024-01-15T13:04:22;8.23;;;3.05;;
74510;SDS011;62991;50.040;18.400;2024-01-15T13:07:24;8.63;;;3.65;;
74510;SDS011;62991;50.040;18.400;2024-01-15T13:10:24;2.88;;;1.58;;
74510;SDS011;62991;50.040;18.400;2024-01-15T13:13:25;4.35;;;2.03;;
74510;SDS011;62991;50.040;18.400;2024-01-15T13:16:26;9.35;;;3.70;;
74510;SDS011;62991;50.040;18.400;2024-01-15T13:19:29;5.82;;;2.92;;
74510;SDS011;62991;50.040;18.400;2024-01-15T13:22:30;8.35;;;2.63;;
74510;SDS011;62991;50.040;18.400;2024-01-15T13:25:32;17.90;;;4.57;;
74510;SDS011;62991;50.040;18.400;2024-01-15T13:28:35;9.60;;;4.13;;
74510;SDS011;62991;50.040;18.400;2024-01-15T13:31:37;15.55;;;4.88;;
74510;SDS011;62991;50.040;18.400;2024-01-15T13:34:38;12.30;;;4.25;;
74510;SDS011;62991;50.040;18.400;2024-01-15T13:37:39;10.73;;;4.10;;
74510;SDS011;62991;50.040;18.400;2024-01-15T13:40:41;19.13;;;6.47;;
74510;SDS011;62991;50.040;18.400;2024-01-15T13:43:42;11.35;;;4.15;;
74510;SDS011;62991;50.040;18.400;2024-01-15T13:46:42;5.68;;;2.40;;
74510;SDS011;62991;50.040;18.400;2024-01-15T13:49:43;8.82;;;3.55;;
74510;SDS011;62991;50.040;18.400;2024-01-15T13:52:44;7.65;;;4.10;;
74510;SDS011;62991;50.040;18.400;2024-01-15T13:55:45;7.68;;;4.05;;
74510;SDS011;62991;50.040;18.400;2024-01-15T13:58:45;13.73;;;3.40;;
74510;SDS011;62991;50.040;18.400;2024-01-15T14:01:48;7.88;;;3.55;;
74510;SDS011;62991;50.040;18.400;2024-01-15T14:04:48;5.10;;;2.40;;
74510;SDS011;62991;50.040;18.400;2024-01-15T14:07:49;5.78;;;2.58;;
74510;SDS011;62991;50.040;18.400;2024-01-15T14:10:50;10.85;;;3.22;;
74510;SDS011;62991;50.040;18.400;2024-01-15T14:13:50;3.45;;;2.25;;
74510;SDS011;62991;50.040;18.400;2024-01-15T14:16:51;7.90;;;2.90;;
74510;SDS011;62991;50.040;18.400;2024-01-15T14:19:52;20.80;;;3.65;;
74510;SDS011;62991;50.040;18.400;2024-01-15T14:22:53;9.70;;;3.78;;
74510;SDS011;62991;50.040;18.400;2024-01-15T14:25:54;5.63;;;2.80;;
74510;SDS011;62991;50.040;18.400;2024-01-15T14:28:54;7.05;;;3.25;;
74510;SDS011;62991;50.040;18.400;2024-01-15T14:31:55;16.73;;;6.25;;
74510;SDS011;62991;50.040;18.400;2024-01-15T14:34:56;5.30;;;3.58;;
74510;SDS011;62991;50.040;18.400;2024-01-15T14:37:56;13.32;;;6.22;;
74510;SDS011;62991;50.040;18.400;2024-01-15T14:40:58;17.08;;;6.75;;
74510;SDS011;62991;50.040;18.400;2024-01-15T14:43:59;6.10;;;3.53;;
74510;SDS011;62991;50.040;18.400;2024-01-15T14:46:59;7.28;;;3.63;;
74510;SDS011;62991;50.040;18.400;2024-01-15T14:50:00;8.60;;;3.97;;
74510;SDS011;62991;50.040;18.400;2024-01-15T14:53:01;8.98;;;4.15;;
74510;SDS011;62991;50.040;18.400;2024-01-15T14:56:02;20.55;;;7.10;;
74510;SDS011;62991;50.040;18.400;2024-01-15T14:59:03;21.90;;;5.80;;
74510;SDS011;62991;50.040;18.400;2024-01-15T15:02:03;9.98;;;4.60;;
74510;SDS011;62991;50.040;18.400;2024-01-15T15:05:04;15.25;;;6.50;;
74510;SDS011;62991;50.040;18.400;2024-01-15T15:08:06;21.20;;;7.43;;
74510;SDS011;62991;50.040;18.400;2024-01-15T15:11:09;27.45;;;8.18;;
74510;SDS011;62991;50.040;18.400;2024-01-15T15:14:11;10.73;;;2.88;;
74510;SDS011;62991;50.040;18.400;2024-01-15T15:17:11;10.60;;;3.90;;
74510;SDS011;62991;50.040;18.400;2024-01-15T15:20:12;9.23;;;3.17;;
74510;SDS011;62991;50.040;18.400;2024-01-15T15:23:13;8.40;;;3.85;;
74510;SDS011;62991;50.040;18.400;2024-01-15T15:26:14;14.35;;;4.97;;
74510;SDS011;62991;50.040;18.400;2024-01-15T15:29:14;18.45;;;7.07;;
74510;SDS011;62991;50.040;18.400;2024-01-15T15:32:16;13.70;;;4.85;;
74510;SDS011;62991;50.040;18.400;2024-01-15T15:35:17;18.60;;;5.20;;
74510;SDS011;62991;50.040;18.400;2024-01-15T15:38:18;16.20;;;6.95;;
74510;SDS011;62991;50.040;18.400;2024-01-15T15:41:19;40.00;;;7.53;;
74510;SDS011;62991;50.040;18.400;2024-01-15T15:44:20;26.73;;;8.70;;
74510;SDS011;62991;50.040;18.400;2024-01-15T15:47:21;15.60;;;4.47;;
74510;SDS011;62991;50.040;18.400;2024-01-15T15:50:21;6.13;;;2.58;;
74510;SDS011;62991;50.040;18.400;2024-01-15T15:53:22;10.27;;;4.75;;
74510;SDS011;62991;50.040;18.400;2024-01-15T15:56:23;18.20;;;5.43;;
74510;SDS011;62991;50.040;18.400;2024-01-15T15:59:25;9.48;;;4.10;;
74510;SDS011;62991;50.040;18.400;2024-01-15T16:02:26;11.65;;;4.18;;
74510;SDS011;62991;50.040;18.400;2024-01-15T16:05:27;7.22;;;1.67;;
74510;SDS011;62991;50.040;18.400;2024-01-15T16:08:27;9.50;;;2.90;;
74510;SDS011;62991;50.040;18.400;2024-01-15T16:11:28;10.32;;;3.50;;
74510;SDS011;62991;50.040;18.400;2024-01-15T16:14:29;3.33;;;1.95;;
74510;SDS011;62991;50.040;18.400;2024-01-15T16:17:29;2.95;;;2.00;;
74510;SDS011;62991;50.040;18.400;2024-01-15T16:20:31;13.38;;;3.38;;
74510;SDS011;62991;50.040;18.400;2024-01-15T16:23:31;11.93;;;3.80;;
74510;SDS011;62991;50.040;18.400;2024-01-15T16:26:32;10.20;;;3.55;;
74510;SDS011;62991;50.040;18.400;2024-01-15T16:29:33;12.43;;;4.18;;
74510;SDS011;62991;50.040;18.400;2024-01-15T16:32:33;11.93;;;2.58;;
74510;SDS011;62991;50.040;18.400;2024-01-15T16:35:34;6.65;;;2.67;;
74510;SDS011;62991;50.040;18.400;2024-01-15T16:38:35;4.53;;;1.25;;
74510;SDS011;62991;50.040;18.400;2024-01-15T16:41:37;5.63;;;2.75;;
74510;SDS011;62991;50.040;18.400;2024-01-15T16:44:38;8.77;;;2.60;;
74510;SDS011;62991;50.040;18.400;2024-01-15T16:47:39;13.50;;;3.35;;
74510;SDS011;62991;50.040;18.400;2024-01-15T16:50:40;7.10;;;1.95;;
74510;SDS011;62991;50.040;18.400;2024-01-15T16:53:40;18.15;;;4.50;;
74510;SDS011;62991;50.040;18.400;2024-01-15T16:56:41;8.98;;;3.53;;
74510;SDS011;62991;50.040;18.400;2024-01-15T16:59:42;8.32;;;3.38;;
74510;SDS011;62991;50.040;18.400;2024-01-15T17:02:42;13.40;;;5.30;;
74510;SDS011;62991;50.040;18.400;2024-01-15T17:05:44;13.68;;;3.90;;
74510;SDS011;62991;50.040;18.400;2024-01-15T17:08:45;12.52;;;4.25;;
74510;SDS011;62991;50.040;18.400;2024-01-15T17:11:46;11.95;;;5.95;;
74510;SDS011;62991;50.040;18.400;2024-01-15T17:14:46;11.23;;;5.13;;
74510;SDS011;62991;50.040;18.400;2024-01-15T17:17:47;14.55;;;5.93;;
74510;SDS011;62991;50.040;18.400;2024-01-15T17:20:48;3.45;;;2.38;;
74510;SDS011;62991;50.040;18.400;2024-01-15T17:23:49;12.60;;;4.13;;
74510;SDS011;62991;50.040;18.400;2024-01-15T17:26:50;11.88;;;2.75;;
74510;SDS011;62991;50.040;18.400;2024-01-15T17:29:50;10.63;;;4.28;;
74510;SDS011;62991;50.040;18.400;2024-01-15T17:32:52;16.33;;;5.80;;
74510;SDS011;62991;50.040;18.400;2024-01-15T17:35:54;8.35;;;2.65;;
74510;SDS011;62991;50.040;18.400;2024-01-15T17:38:56;9.00;;;3.58;;
74510;SDS011;62991;50.040;18.400;2024-01-15T17:42:00;6.88;;;2.97;;
74510;SDS011;62991;50.040;18.400;2024-01-15T17:45:00;7.13;;;1.50;;
74510;SDS011;62991;50.040;18.400;2024-01-15T17:48:01;6.22;;;3.03;;
74510;SDS011;62991;50.040;18.400;2024-01-15T17:51:02;4.05;;;1.30;;
74510;SDS011;62991;50.040;18.400;2024-01-15T17:54:03;9.23;;;2.20;;
74510;SDS011;62991;50.040;18.400;2024-01-15T17:57:08;3.85;;;1.05;;
74510;SDS011;62991;50.040;18.400;2024-01-15T18:00:09;2.35;;;1.40;;